LiveATC.Net - Listen to live air traffic control over the Internet!


ICAO: SGAS  IATA: ASU   Airport: Silvio Pettirossi International Airport
City: Asuncion
Country: Paraguay   Continent: South America
SGAS METAR Weather: SGAS 241400Z 18012KT 9999 OVC010 14/11 Q1018
SGAS Flight Activity (FlightAware)

SGAS Gnd/Twr/App/Center
Feed Status: DOWN
Last heard on: 2018-06-23 17:46:04 (0 days 20 hours 48 minutes ago)
SGAS Gnd/Twr/App/Center Audio Archives
FacilityFrequency
Asuncion Approach119.700
Asuncion Control126.900
Asuncion Ground121.900
Asuncion Tower118.100

NOTICE

Unauthorized use prohibited. See LiveATC.net Terms of Service


Find LiveATC Audio Streams


Airport/ARTCC Code

Frequency Search
(e.g., 124.400, 128.75)
Site-wide search
 


Browse LiveATC Feeds
LiveATC Coverage Map
Top 50 LiveATC Feeds
Bad Weather Areas

LiveATC FAQ
Offer a LiveATC Feed
Contact LiveATC.net
Press Inquiries

LiveATC on iPhone
LiveATC on Android

Windows Phone
Windows 8/10

LiveATC Mobile
(Mobile browser)

ATC Audio Archives
Interesting Recordings

LiveATC Forums


Home Page
About LiveATC.net
Make a Donation
Terms of Use
Privacy Policy

Canadian Air Freqs

AIRMETs/SIGMETs

FAA Airport Status
Nat'l Airspace Status
Arrival Demand Charts


Server Software By:
Icecast.org
Liquidsoap